Time;durP1;ratioP1;P1;durP2;ratioP2;P2;SDS_P1;SDS_P2;PMS_P1;PMS_P2;Temp;Humidity;BMP_temperature;BMP_pressure;BME280_temperature;BME280_humidity;BME280_pressure;Samples;Min_cycle;Max_cycle;Signal;HPM_P1;HPM_P2
2022/01/25 00:28:26;;;;;;;69.90;42.70;;;6.50;99.90;;;;;;4980645;28;112219;-61
2022/01/25 00:31:09;;;;;;;78.15;45.80;;;6.50;99.90;;;;;;4962928;28;112724;-61
2022/01/25 00:33:37;;;;;;;78.95;47.30;;;6.40;99.90;;;;;;4980136;28;114139;-58
2022/01/25 00:36:08;;;;;;;75.00;45.30;;;6.40;99.90;;;;;;4979922;28;113477;-61
2022/01/25 00:38:34;;;;;;;79.40;46.33;;;6.40;99.90;;;;;;4980135;28;112696;-60
2022/01/25 00:41:00;;;;;;;82.88;46.45;;;6.30;99.90;;;;;;4981108;28;112460;-62
2022/01/25 00:43:27;;;;;;;72.25;40.85;;;6.30;99.90;;;;;;4980640;28;114326;-61
2022/01/25 00:45:57;;;;;;;68.20;43.03;;;6.30;99.90;;;;;;4982913;28;114349;-62
2022/01/25 00:49:00;;;;;;;70.50;43.95;;;6.30;99.90;;;;;;4983441;28;112352;-60
2022/01/25 00:53:59;;;;;;;66.78;40.97;;;6.30;99.90;;;;;;4983235;28;112847;-60
2022/01/25 00:56:30;;;;;;;69.18;43.35;;;6.30;99.90;;;;;;4982993;28;114384;-60
2022/01/25 00:58:56;;;;;;;83.53;46.83;;;6.30;99.90;;;;;;4965548;28;112479;-62
2022/01/25 01:01:22;;;;;;;73.30;44.50;;;6.30;99.90;;;;;;4976745;28;112340;-61
2022/01/25 01:03:48;;;;;;;74.55;45.65;;;6.30;99.90;;;;;;4963915;28;113458;-61
2022/01/25 01:06:15;;;;;;;71.10;46.30;;;6.30;99.90;;;;;;4962600;28;112665;-62
2022/01/25 01:08:42;;;;;;;71.00;43.85;;;6.30;99.90;;;;;;4963351;28;112821;-61
2022/01/25 01:11:13;;;;;;;65.82;39.90;;;6.30;99.90;;;;;;4963903;28;112559;-63
2022/01/25 01:38:04;;;;;;;97.97;54.70;;;5.90;99.90;;;;;;4963253;28;114447;-62
2022/01/25 01:41:20;;;;;;;88.13;48.67;;;5.90;99.90;;;;;;4973895;28;112961;-61
2022/01/25 01:43:35;;;;;;;116.13;61.60;;;5.90;99.90;;;;;;4978448;28;112677;-61
2022/01/25 01:48:55;;;;;;;115.35;56.53;;;5.80;99.90;;;;;;4982659;28;112535;-62
2022/01/25 01:51:34;;;;;;;74.60;43.97;;;5.80;99.90;;;;;;4983307;28;112330;-61
2022/01/25 01:54:04;;;;;;;67.55;36.75;;;5.80;99.90;;;;;;4985756;22;114360;-57
2022/01/25 01:56:29;;;;;;;;;;;5.80;99.90;;;;;;4953602;28;114312;-57
2022/01/25 01:58:57;;;;;;;65.03;36.40;;;5.80;99.90;;;;;;4945212;28;112661;-56
2022/01/25 02:01:25;;;;;;;67.95;34.67;;;5.80;99.90;;;;;;4957790;28;112336;-57
2022/01/25 02:03:53;;;;;;;61.78;36.22;;;5.80;99.90;;;;;;4962998;28;112912;-55
2022/01/25 02:06:19;;;;;;;61.08;32.30;;;5.80;99.90;;;;;;4962584;28;113569;-57
2022/01/25 02:08:45;;;;;;;61.78;34.70;;;5.70;99.90;;;;;;4962444;28;112616;-57
2022/01/25 02:11:11;;;;;;;44.08;29.35;;;5.80;99.90;;;;;;4962761;28;112406;-58
2022/01/25 02:13:40;;;;;;;53.30;29.40;;;5.70;99.90;;;;;;4947602;28;112819;-58
2022/01/25 02:16:09;;;;;;;58.53;31.08;;;5.80;99.90;;;;;;4943318;28;113392;-57
2022/01/25 02:24:03;;;;;;;58.83;31.85;;;5.70;99.90;;;;;;4943598;28;112305;-56
2022/01/25 02:26:29;;;;;;;54.75;33.15;;;5.70;99.90;;;;;;4924027;28;115377;-57
2022/01/25 02:28:55;;;;;;;49.30;29.88;;;5.70;99.90;;;;;;4924446;28;113542;-57
2022/01/25 02:31:21;;;;;;;56.67;32.10;;;5.70;99.90;;;;;;4925114;28;112620;-57
2022/01/25 02:33:47;;;;;;;55.72;32.13;;;5.60;99.90;;;;;;4925601;28;112426;-58
2022/01/25 02:36:27;;;;;;;62.10;32.13;;;5.60;99.90;;;;;;4941926;28;112909;-56
2022/01/25 02:38:53;;;;;;;;;;;5.60;99.90;;;;;;4942775;28;113168;-56
2022/01/25 02:41:19;;;;;;;58.08;33.42;;;5.60;99.90;;;;;;4944132;28;112520;-56
2022/01/25 02:43:46;;;;;;;56.33;31.30;;;5.60;99.90;;;;;;4943230;28;113658;-56
2022/01/25 02:49:04;;;;;;;57.28;31.52;;;5.50;99.90;;;;;;4944710;28;112459;-56
2022/01/25 02:51:42;;;;;;;56.75;32.60;;;5.50;99.90;;;;;;4962283;28;112424;-58
2022/01/25 02:54:10;;;;;;;67.15;34.60;;;5.50;99.90;;;;;;4961889;28;112890;-57
2022/01/25 02:56:37;;;;;;;57.70;32.60;;;5.40;99.90;;;;;;4961230;28;113192;-56
2022/01/25 02:59:05;;;;;;;59.97;32.28;;;5.40;99.90;;;;;;4962387;28;112566;-57
2022/01/25 03:01:31;;;;;;;57.15;32.63;;;5.40;99.90;;;;;;4961846;28;112465;-57
2022/01/25 03:03:57;;;;;;;51.13;30.15;;;5.40;99.90;;;;;;4962543;28;112508;-58
2022/01/25 03:06:24;;;;;;;66.43;34.63;;;5.30;99.90;;;;;;4961209;28;114222;-57
2022/01/25 03:08:51;;;;;;;54.85;32.80;;;5.30;99.90;;;;;;4961534;28;113525;-58
2022/01/25 03:11:19;;;;;;;52.60;30.88;;;5.30;99.90;;;;;;4961835;28;112936;-58
2022/01/25 03:13:56;;;;;;;66.97;35.88;;;5.30;99.90;;;;;;4962830;28;112423;-58
2022/01/25 03:16:36;;;;;;;59.72;35.15;;;5.30;99.90;;;;;;4961013;28;113829;-58
2022/01/25 03:19:28;;;;;;;54.17;34.33;;;5.20;99.90;;;;;;4960754;28;114191;-58
2022/01/25 03:21:51;;;;;;;59.95;34.60;;;5.20;99.90;;;;;;4961594;28;112711;-57
2022/01/25 03:24:16;;;;;;;73.88;34.42;;;5.20;99.90;;;;;;4945259;28;112734;-57
2022/01/25 03:26:42;;;;;;;57.08;33.60;;;5.10;99.90;;;;;;4961578;28;114285;-57
2022/01/25 03:29:08;;;;;;;54.40;30.00;;;5.10;99.90;;;;;;4961513;28;112692;-58
2022/01/25 03:31:34;;;;;;;52.83;30.33;;;5.10;99.90;;;;;;4961729;28;112444;-58
2022/01/25 03:34:00;;;;;;;59.45;33.35;;;5.10;99.90;;;;;;4961944;28;112623;-58
2022/01/25 03:36:26;;;;;;;51.47;27.75;;;5.10;99.90;;;;;;4959871;28;113154;-60
2022/01/25 03:38:52;;;;;;;56.00;28.52;;;5.00;99.90;;;;;;4960877;28;113674;-57
2022/01/25 03:41:19;;;;;;;53.05;27.45;;;5.10;99.90;;;;;;4943376;28;113566;-57
2022/01/25 03:43:52;;;;;;;49.85;26.60;;;5.00;99.90;;;;;;4961889;28;112570;-58
2022/01/25 03:46:35;;;;;;;46.50;26.10;;;5.10;99.90;;;;;;4960940;28;113332;-58
2022/01/25 03:51:46;;;;;;;52.90;26.83;;;5.00;99.90;;;;;;4941817;28;112726;-58
2022/01/25 03:54:12;;;;;;;50.45;26.83;;;5.10;99.90;;;;;;4941096;28;112608;-57
2022/01/25 03:56:39;;;;;;;53.47;28.02;;;5.10;99.90;;;;;;4941228;28;113549;-57
2022/01/25 03:59:06;;;;;;;49.80;27.10;;;5.10;99.90;;;;;;4923010;28;113538;-57
2022/01/25 04:01:33;;;;;;;50.08;26.65;;;5.20;99.90;;;;;;4941836;28;112735;-57
2022/01/25 04:04:06;;;;;;;58.40;29.73;;;5.20;99.90;;;;;;4942193;28;112964;-57
2022/01/25 04:06:33;;;;;;;50.17;26.35;;;5.20;99.90;;;;;;4941836;28;112956;-57
2022/01/25 04:09:00;;;;;;;43.65;26.23;;;5.30;99.90;;;;;;4924071;28;113045;-57
2022/01/25 04:11:27;;;;;;;49.58;25.30;;;5.30;99.90;;;;;;4941540;28;112410;-57
2022/01/25 04:13:55;;;;;;;53.10;24.85;;;5.30;99.90;;;;;;4941935;28;112530;-57
2022/01/25 04:16:30;;;;;;;55.63;25.80;;;5.30;99.90;;;;;;4941121;28;113153;-57
2022/01/25 04:19:12;;;;;;;49.03;25.42;;;5.30;99.90;;;;;;4925551;28;112685;-57
2022/01/25 04:26:51;;;;;;;45.08;24.95;;;5.20;99.90;;;;;;4944679;28;112830;-57
2022/01/25 04:29:17;;;;;;;46.42;25.05;;;5.20;99.90;;;;;;4944340;28;113475;-57
2022/01/25 04:31:43;;;;;;;45.38;25.00;;;5.10;99.90;;;;;;4944896;28;112408;-62
2022/01/25 04:34:23;;;;;;;49.72;25.35;;;5.10;99.90;;;;;;4944441;28;112481;-59
2022/01/25 04:50:39;;;;;;;42.47;23.65;;;5.00;99.90;;;;;;4960036;28;112727;-55
2022/01/25 04:55:45;;;;;;;51.80;25.95;;;4.90;99.90;;;;;;4963722;28;112795;-56
2022/01/25 04:58:19;;;;;;;54.50;25.40;;;4.80;99.90;;;;;;4963465;28;113511;-57
2022/01/25 05:00:47;;;;;;;50.03;27.25;;;4.80;99.90;;;;;;4955816;28;114750;-57
2022/01/25 05:03:18;;;;;;;44.15;24.77;;;4.80;99.90;;;;;;4983261;28;114042;-56
2022/01/25 05:08:33;;;;;;;40.47;23.77;;;4.80;99.90;;;;;;4982678;28;112801;-56
2022/01/25 05:11:14;;;;;;;49.85;24.17;;;4.80;99.90;;;;;;4983403;28;112916;-57
2022/01/25 05:16:27;;;;;;;42.00;24.10;;;4.70;99.90;;;;;;4984200;28;112879;-57
2022/01/25 05:24:26;;;;;;;44.08;23.33;;;4.70;99.90;;;;;;4983627;28;112738;-57
2022/01/25 05:26:52;;;;;;;40.08;21.45;;;4.70;99.90;;;;;;4983600;28;112869;-58
2022/01/25 05:29:18;;;;;;;40.65;23.35;;;4.60;99.90;;;;;;4982893;28;113143;-56
2022/01/25 05:31:44;;;;;;;41.88;23.30;;;4.60;99.90;;;;;;4983167;28;112561;-56
2022/01/25 05:34:09;;;;;;;43.42;22.52;;;4.60;99.90;;;;;;4965327;28;112615;-57
2022/01/25 05:36:37;;;;;;;38.72;23.48;;;4.60;99.90;;;;;;4965286;28;112502;-57
2022/01/25 05:39:10;;;;;;;41.58;24.70;;;4.60;99.90;;;;;;4981879;28;115087;-57
2022/01/25 05:41:36;;;;;;;50.22;24.73;;;4.60;99.90;;;;;;4982161;28;113521;-58
2022/01/25 05:44:21;;;;;;;41.95;25.15;;;4.60;99.90;;;;;;4983241;28;112946;-55
2022/01/25 05:47:05;;;;;;;44.42;24.35;;;4.60;99.90;;;;;;4984104;28;112653;-57
2022/01/25 05:49:39;;;;;;;41.20;24.67;;;4.60;99.90;;;;;;4970275;28;114218;-58
2022/01/25 05:52:07;;;;;;;46.42;23.77;;;4.60;99.90;;;;;;4945143;28;113298;-58
2022/01/25 05:54:33;;;;;;;45.63;24.42;;;4.50;99.90;;;;;;4962827;28;112525;-57
2022/01/25 05:56:59;;;;;;;42.47;23.13;;;4.50;99.90;;;;;;4944820;28;112780;-57
2022/01/25 05:59:25;;;;;;;40.92;24.23;;;4.50;99.90;;;;;;4961281;28;113049;-56
2022/01/25 06:01:51;;;;;;;49.37;25.97;;;4.50;99.90;;;;;;4878979;22;3141325;-64
2022/01/25 06:04:17;;;;;;;40.97;22.38;;;4.50;99.90;;;;;;4954144;28;112451;-61
2022/01/25 06:06:43;;;;;;;42.42;24.05;;;4.50;99.90;;;;;;4944389;28;112487;-60
2022/01/25 06:09:09;;;;;;;44.20;23.65;;;4.50;99.90;;;;;;4955557;28;113789;-62
2022/01/25 06:11:37;;;;;;;53.03;25.52;;;4.50;99.90;;;;;;4962781;28;112487;-61
2022/01/25 06:14:03;;;;;;;47.42;24.95;;;4.50;99.90;;;;;;4963031;28;112508;-63
2022/01/25 06:16:30;;;;;;;45.78;26.27;;;4.50;99.90;;;;;;4945073;28;112574;-63
2022/01/25 06:18:58;;;;;;;42.88;24.85;;;4.50;99.90;;;;;;4983083;22;114312;-58
2022/01/25 06:21:24;;;;;;;51.78;26.90;;;4.40;99.90;;;;;;4981149;28;113947;-58
2022/01/25 06:23:50;;;;;;;41.33;25.95;;;4.40;99.90;;;;;;4976217;28;112298;-58
2022/01/25 06:26:17;;;;;;;49.22;26.45;;;4.50;99.90;;;;;;4963054;28;112858;-57
2022/01/25 06:28:43;;;;;;;48.22;24.00;;;4.50;99.90;;;;;;4965169;28;113014;-57
2022/01/25 06:31:15;;;;;;;;;;;4.40;99.90;;;;;;4981874;28;114241;-58
2022/01/25 06:33:43;;;;;;;36.92;23.75;;;4.40;99.90;;;;;;4983737;28;112691;-57
2022/01/25 06:36:10;;;;;;;38.00;24.87;;;4.50;99.90;;;;;;4961947;28;112480;-57
2022/01/25 06:38:36;;;;;;;45.38;24.67;;;4.50;99.90;;;;;;4962110;28;112914;-59
2022/01/25 06:41:02;;;;;;;39.10;22.83;;;4.50;99.90;;;;;;4959556;28;113630;-57
2022/01/25 06:43:28;;;;;;;41.03;24.17;;;4.50;99.90;;;;;;4960833;28;112592;-59
2022/01/25 06:48:22;;;;;;;41.63;26.13;;;4.50;99.90;;;;;;4939840;28;114784;-62
2022/01/25 06:50:48;;;;;;;52.75;27.27;;;4.50;99.90;;;;;;4941229;28;112872;-61
2022/01/25 06:53:14;;;;;;;39.63;25.02;;;4.40;99.90;;;;;;4942646;28;112427;-63
2022/01/25 06:55:40;;;;;;;48.10;30.10;;;4.40;99.90;;;;;;4943107;28;112785;-62
2022/01/25 06:58:06;;;;;;;50.80;28.52;;;4.40;99.90;;;;;;4942164;28;112905;-62
2022/01/25 07:00:32;;;;;;;58.05;27.65;;;4.40;99.90;;;;;;4939399;28;112585;-64
2022/01/25 07:02:58;;;;;;;49.78;28.38;;;4.40;99.90;;;;;;4934100;28;112761;-63
2022/01/25 07:05:24;;;;;;;48.40;28.02;;;4.50;99.90;;;;;;4946812;28;112378;-62
2022/01/25 07:07:51;;;;;;;46.92;27.45;;;4.50;99.90;;;;;;4952141;28;114107;-63
2022/01/25 07:10:17;;;;;;;49.08;27.52;;;4.50;99.90;;;;;;4954035;28;112676;-64
2022/01/25 07:12:44;;;;;;;46.53;28.05;;;4.50;99.90;;;;;;4944990;28;112946;-62
2022/01/25 07:15:11;;;;;;;48.85;25.08;;;4.50;99.90;;;;;;4958388;28;112673;-62
2022/01/25 07:17:37;;;;;;;41.00;24.67;;;4.50;99.90;;;;;;4946425;28;116948;-62
2022/01/25 07:20:06;;;;;;;43.00;23.20;;;4.50;99.90;;;;;;4950245;28;113748;-62
2022/01/25 07:22:36;;;;;;;39.33;22.27;;;4.50;99.90;;;;;;4956007;28;112556;-62
2022/01/25 07:25:05;;;;;;;38.92;22.52;;;4.50;99.90;;;;;;4944986;28;112520;-64
2022/01/25 07:27:31;;;;;;;40.73;22.13;;;4.50;99.90;;;;;;4953840;28;113214;-64
2022/01/25 07:29:57;;;;;;;35.88;21.75;;;4.50;99.90;;;;;;4970327;22;114502;-58
2022/01/25 07:32:23;;;;;;;33.85;20.05;;;4.50;99.90;;;;;;4985410;28;112812;-56
2022/01/25 07:34:48;;;;;;;37.55;21.30;;;4.50;99.90;;;;;;4990266;28;112761;-57
2022/01/25 07:37:14;;;;;;;35.92;19.98;;;4.50;99.90;;;;;;4985565;28;114118;-56
2022/01/25 07:39:42;;;;;;;41.03;19.05;;;4.50;99.90;;;;;;4996619;28;112633;-57
2022/01/25 07:42:09;;;;;;;38.60;19.35;;;4.50;99.90;;;;;;4984073;28;112506;-57
2022/01/25 07:44:37;;;;;;;29.88;17.85;;;4.50;99.90;;;;;;4975141;28;113224;-57
2022/01/25 07:47:03;;;;;;;39.05;19.33;;;4.50;99.90;;;;;;4971859;28;114298;-59
2022/01/25 07:49:30;;;;;;;35.17;19.40;;;4.50;99.90;;;;;;4977192;28;116776;-55
2022/01/25 07:51:56;;;;;;;34.45;19.63;;;4.50;99.90;;;;;;4984146;28;112506;-58
2022/01/25 07:54:23;;;;;;;33.22;17.65;;;4.50;99.90;;;;;;4995287;28;112944;-57
2022/01/25 07:56:48;;;;;;;36.22;18.17;;;4.50;99.90;;;;;;4993496;28;113069;-58
2022/01/25 07:59:14;;;;;;;32.65;18.05;;;4.50;99.90;;;;;;4990291;28;114301;-56
2022/01/25 08:01:41;;;;;;;36.05;18.45;;;4.50;99.90;;;;;;4969783;28;112680;-56
2022/01/25 08:04:10;;;;;;;42.95;19.00;;;4.50;99.90;;;;;;5000198;28;112423;-59
2022/01/25 08:06:37;;;;;;;39.38;19.08;;;4.60;99.90;;;;;;4982025;22;113160;-58
2022/01/25 08:09:05;;;;;;;35.90;18.20;;;4.60;99.90;;;;;;4973524;28;114411;-62
2022/01/25 08:11:31;;;;;;;40.38;18.58;;;4.60;99.90;;;;;;4978777;28;112653;-62
2022/01/25 08:14:11;;;;;;;34.03;18.17;;;4.60;99.90;;;;;;4964605;28;112741;-62
2022/01/25 08:16:42;;;;;;;30.70;15.90;;;4.60;99.90;;;;;;4960675;28;115055;-62
2022/01/25 08:19:08;;;;;;;31.77;18.13;;;4.70;99.90;;;;;;4956170;28;113117;-62
2022/01/25 08:21:36;;;;;;;33.25;19.90;;;4.70;99.90;;;;;;4982584;28;112936;-64
2022/01/25 08:24:05;;;;;;;39.05;21.27;;;4.70;99.90;;;;;;4978108;28;112585;-62
2022/01/25 08:26:31;;;;;;;33.50;22.13;;;4.70;99.90;;;;;;4982969;28;113046;-64
2022/01/25 08:28:57;;;;;;;34.30;21.40;;;4.80;99.90;;;;;;4983358;28;113899;-61
2022/01/25 08:31:22;;;;;;;42.20;22.80;;;4.70;99.90;;;;;;4965489;28;112470;-63
2022/01/25 08:33:48;;;;;;;40.80;23.42;;;4.80;99.90;;;;;;4966533;28;112773;-61
2022/01/25 08:36:14;;;;;;;45.58;24.83;;;4.80;99.90;;;;;;4957217;28;116158;-64
2022/01/25 08:38:40;;;;;;;35.97;22.33;;;4.80;99.90;;;;;;4983349;28;112469;-61
2022/01/25 08:41:06;;;;;;;48.97;25.98;;;4.80;99.90;;;;;;4979993;28;112996;-62
2022/01/25 08:43:33;;;;;;;43.35;23.33;;;4.90;99.90;;;;;;4959498;28;112555;-63
2022/01/25 08:46:00;;;;;;;37.47;22.55;;;4.90;99.90;;;;;;4981564;28;113178;-64
2022/01/25 08:48:26;;;;;;;42.90;23.92;;;4.90;99.90;;;;;;4977388;28;113721;-63
2022/01/25 08:50:52;;;;;;;41.30;21.25;;;5.00;99.90;;;;;;4962724;28;112442;-64
2022/01/25 08:53:18;;;;;;;36.40;20.65;;;5.00;99.90;;;;;;4974962;28;112393;-61
2022/01/25 08:55:44;;;;;;;41.58;22.77;;;5.00;99.90;;;;;;4977398;28;113385;-65
2022/01/25 08:58:10;;;;;;;37.78;22.60;;;5.10;99.90;;;;;;4980920;28;113011;-62
2022/01/25 09:00:36;;;;;;;37.83;23.25;;;5.20;99.90;;;;;;4958782;28;114191;-63
2022/01/25 09:03:03;;;;;;;54.33;29.58;;;5.20;99.90;;;;;;4973131;28;113033;-64
2022/01/25 09:05:29;;;;;;;43.55;25.52;;;5.30;99.90;;;;;;4980795;28;114223;-63
2022/01/25 09:07:57;;;;;;;38.70;22.00;;;5.40;99.90;;;;;;4981862;28;113385;-61
2022/01/25 09:10:24;;;;;;;39.38;23.08;;;5.60;99.90;;;;;;4982642;28;112451;-63
2022/01/25 09:12:49;;;;;;;51.65;28.63;;;5.60;99.90;;;;;;4982999;28;112876;-65
2022/01/25 09:15:15;;;;;;;52.75;26.52;;;5.70;99.90;;;;;;4982164;28;113423;-63
2022/01/25 09:17:41;;;;;;;39.03;23.48;;;5.80;99.90;;;;;;4981807;28;113487;-64
2022/01/25 09:20:09;;;;;;;46.80;25.48;;;5.90;99.90;;;;;;4988905;22;113259;-57
2022/01/25 09:22:35;;;;;;;44.63;23.35;;;6.00;99.90;;;;;;4989836;28;112575;-58
2022/01/25 09:25:01;;;;;;;44.33;24.35;;;6.10;99.90;;;;;;4989301;28;113756;-56
2022/01/25 09:27:27;;;;;;;43.85;23.10;;;6.20;99.90;;;;;;4991771;28;112578;-55
2022/01/25 09:29:52;;;;;;;46.28;23.38;;;6.30;99.90;;;;;;4986045;28;112362;-58
2022/01/25 09:32:19;;;;;;;39.28;21.80;;;6.30;99.90;;;;;;4997759;28;112598;-55
2022/01/25 09:34:46;;;;;;;37.67;21.85;;;6.50;99.90;;;;;;4990785;28;114553;-57
2022/01/25 09:37:12;;;;;;;40.22;21.20;;;6.50;99.90;;;;;;4976677;28;113981;-56
2022/01/25 09:39:38;;;;;;;42.42;21.02;;;6.60;99.90;;;;;;4976143;28;112690;-56
2022/01/25 09:42:08;;;;;;;36.28;21.77;;;6.70;99.90;;;;;;4986011;28;112521;-56
2022/01/25 09:44:38;;;;;;;;;;;6.80;99.90;;;;;;4995179;28;115225;-58
2022/01/25 09:47:05;;;;;;;33.78;22.67;;;7.00;99.90;;;;;;4994415;28;112872;-56
2022/01/25 09:49:32;;;;;;;36.25;22.42;;;7.00;99.90;;;;;;4987331;28;112691;-55
2022/01/25 09:52:01;;;;;;;35.38;20.95;;;7.10;99.90;;;;;;4999140;28;112581;-57
2022/01/25 09:54:30;;;;;;;44.72;22.40;;;7.30;99.90;;;;;;4988349;28;113189;-55
2022/01/25 09:56:58;;;;;;;41.72;20.35;;;7.40;99.90;;;;;;4972844;28;115887;-58
2022/01/25 09:59:26;;;;;;;40.20;20.83;;;7.50;99.90;;;;;;4996138;28;112574;-53
2022/01/25 10:01:53;;;;;;;33.90;21.38;;;7.60;99.90;;;;;;4985903;28;112617;-56
2022/01/25 10:04:26;;;;;;;38.92;19.25;;;7.60;99.90;;;;;;4996989;28;113008;-53
2022/01/25 10:06:52;;;;;;;34.00;16.75;;;7.70;99.90;;;;;;4991510;28;112970;-55
2022/01/25 10:09:19;;;;;;;34.08;17.50;;;7.80;99.90;;;;;;4987450;28;112757;-55
2022/01/25 10:11:45;;;;;;;29.23;15.55;;;7.90;99.90;;;;;;4980016;28;112407;-56
2022/01/25 10:14:11;;;;;;;29.50;15.07;;;8.00;99.90;;;;;;4999265;28;113073;-55
2022/01/25 10:16:43;;;;;;;28.77;15.73;;;8.00;99.90;;;;;;4992195;28;112710;-57
2022/01/25 10:19:12;;;;;;;26.73;15.13;;;8.00;99.90;;;;;;4992518;28;112490;-56
2022/01/25 10:21:43;;;;;;;24.65;15.23;;;8.10;99.90;;;;;;4984975;28;112919;-54
2022/01/25 10:24:17;;;;;;;23.88;14.05;;;8.20;99.90;;;;;;4975507;28;114353;-56
2022/01/25 10:26:58;;;;;;;24.83;15.05;;;8.30;99.90;;;;;;4988768;28;113443;-56
2022/01/25 10:29:31;;;;;;;23.85;12.10;;;8.40;99.90;;;;;;4986542;28;112388;-56
2022/01/25 10:32:00;;;;;;;23.65;14.15;;;8.60;99.90;;;;;;4997476;28;112500;-57
2022/01/25 10:34:30;;;;;;;27.73;14.60;;;8.70;99.90;;;;;;4987807;28;114704;-56
2022/01/25 10:36:57;;;;;;;27.73;16.05;;;8.70;99.90;;;;;;4990664;28;112460;-56
2022/01/25 10:39:31;;;;;;;21.45;12.57;;;8.80;99.90;;;;;;4995883;28;112430;-54
2022/01/25 10:42:07;;;;;;;21.95;12.40;;;8.90;99.90;;;;;;4968662;28;112864;-54
2022/01/25 10:44:53;;;;;;;20.55;12.48;;;9.00;99.90;;;;;;4988649;28;113037;-54
2022/01/25 10:47:39;;;;;;;23.05;12.90;;;9.00;99.90;;;;;;4986756;28;113289;-55
2022/01/25 10:50:18;;;;;;;31.70;15.65;;;9.00;99.90;;;;;;4998150;28;112543;-56
2022/01/25 10:52:46;;;;;;;31.55;14.55;;;9.10;99.90;;;;;;4990544;28;112430;-52
2022/01/25 10:55:12;;;;;;;36.08;14.93;;;9.10;99.90;;;;;;4970434;28;114292;-54
2022/01/25 10:57:39;;;;;;;39.50;15.60;;;9.10;99.90;;;;;;4996687;28;113821;-57
2022/01/25 11:00:09;;;;;;;25.58;13.05;;;9.20;99.90;;;;;;4984453;28;112817;-55
2022/01/25 11:02:47;;;;;;;31.98;14.77;;;9.30;99.90;;;;;;4975358;28;112776;-56
2022/01/25 11:05:14;;;;;;;27.02;15.40;;;9.30;99.90;;;;;;4974755;28;116545;-55
2022/01/25 11:07:44;;;;;;;24.33;14.68;;;9.40;99.90;;;;;;4984399;28;113637;-56
2022/01/25 11:10:21;;;;;;;25.02;14.18;;;9.50;99.90;;;;;;4968181;28;112665;-57
2022/01/25 11:13:22;;;;;;;28.48;15.13;;;9.50;99.90;;;;;;4992371;28;112512;-56
2022/01/25 11:15:34;;;;;;;22.85;13.02;;;9.60;99.90;;;;;;4993223;28;113050;-56
2022/01/25 11:17:59;;;;;;;25.05;13.07;;;9.70;99.90;;;;;;4983602;28;113460;-54
2022/01/25 11:20:26;;;;;;;27.92;15.23;;;9.80;99.90;;;;;;4994049;28;112853;-56
2022/01/25 11:22:53;;;;;;;19.83;12.25;;;9.90;99.90;;;;;;4991120;28;112569;-56
2022/01/25 11:25:22;;;;;;;25.10;13.52;;;10.00;99.90;;;;;;4987409;28;114762;-56
2022/01/25 11:27:49;;;;;;;23.27;12.45;;;10.10;99.90;;;;;;4992187;28;113882;-56
2022/01/25 11:30:19;;;;;;;23.88;12.52;;;10.20;99.90;;;;;;4995891;28;113017;-58
2022/01/25 11:32:48;;;;;;;25.55;13.50;;;10.40;99.90;;;;;;4989880;28;112654;-53
2022/01/25 11:35:18;;;;;;;23.52;12.80;;;10.50;99.90;;;;;;4989031;28;113257;-56
2022/01/25 11:37:46;;;;;;;23.80;12.85;;;10.60;99.90;;;;;;4983432;28;112538;-55
2022/01/25 11:40:26;;;;;;;23.25;13.55;;;10.80;99.90;;;;;;4998092;28;112483;-56
2022/01/25 11:42:58;;;;;;;23.13;13.30;;;10.90;99.90;;;;;;4996932;28;112717;-57
2022/01/25 11:45:32;;;;;;;27.13;13.88;;;11.10;99.90;;;;;;4985073;28;114632;-60
2022/01/25 11:47:59;;;;;;;30.08;16.08;;;11.30;99.90;;;;;;4990599;28;113733;-58
2022/01/25 11:50:27;;;;;;;27.15;15.50;;;11.50;99.90;;;;;;4992810;28;112897;-56
2022/01/25 11:52:56;;;;;;;30.60;15.85;;;11.70;99.90;;;;;;4997804;28;112786;-57
2022/01/25 11:55:34;;;;;;;28.40;15.52;;;12.10;99.90;;;;;;4998431;28;113030;-57
2022/01/25 11:58:14;;;;;;;27.15;15.00;;;12.50;99.90;;;;;;4997373;28;113506;-57
2022/01/25 12:00:53;;;;;;;36.78;16.33;;;12.90;99.90;;;;;;4999757;28;112584;-56
2022/01/25 12:03:32;;;;;;;25.25;15.20;;;13.40;99.90;;;;;;4999777;28;112814;-56
2022/01/25 12:06:32;;;;;;;37.25;16.63;;;13.90;99.90;;;;;;5000199;28;112923;-59
2022/01/25 12:09:42;;;;;;;25.85;15.13;;;14.60;99.90;;;;;;5000037;28;113506;-57
2022/01/25 12:12:14;;;;;;;26.20;14.30;;;15.30;99.90;;;;;;5000486;28;112624;-56
2022/01/25 12:14:41;;;;;;;23.88;13.35;;;16.30;99.90;;;;;;5005037;22;112534;-67
2022/01/25 12:17:15;;;;;;;22.05;12.18;;;16.90;99.90;;;;;;4978812;28;113244;-67
2022/01/25 12:19:44;;;;;;;26.02;12.23;;;17.30;99.90;;;;;;4980291;28;112980;-67
2022/01/25 12:22:26;;;;;;;24.40;12.63;;;17.90;99.90;;;;;;4980569;28;112613;-66
2022/01/25 12:25:23;;;;;;;20.42;11.77;;;18.50;99.90;;;;;;4979757;28;113040;-66
2022/01/25 12:27:54;;;;;;;20.30;12.38;;;19.10;99.90;;;;;;4978576;28;116052;-68
2022/01/25 12:30:40;;;;;;;25.17;11.25;;;19.50;99.90;;;;;;4961246;28;115349;-70
2022/01/25 12:33:27;;;;;;;21.58;11.15;;;19.90;98.90;;;;;;4979432;28;112954;-62
2022/01/25 12:36:07;;;;;;;18.23;10.27;;;20.20;98.50;;;;;;4980280;28;113062;-62
2022/01/25 12:38:38;;;;;;;19.05;10.30;;;20.60;97.30;;;;;;4978639;28;114326;-62
2022/01/25 12:41:17;;;;;;;18.55;9.77;;;21.10;95.90;;;;;;4982188;28;113935;-62
2022/01/25 12:43:45;;;;;;;20.40;10.65;;;21.50;94.90;;;;;;4983977;28;112506;-63
2022/01/25 12:46:20;;;;;;;18.17;9.05;;;21.80;93.50;;;;;;4956582;22;114010;-61
2022/01/25 12:48:51;;;;;;;30.23;9.50;;;22.20;93.00;;;;;;4983483;28;114237;-62
2022/01/25 12:51:20;;;;;;;16.45;9.35;;;22.50;91.60;;;;;;4983684;28;113618;-61
2022/01/25 12:53:50;;;;;;;16.27;8.95;;;22.90;90.60;;;;;;4996530;22;112254;-62
2022/01/25 12:56:22;;;;;;;18.10;9.13;;;23.10;89.80;;;;;;4962449;28;115121;-63
2022/01/25 12:58:52;;;;;;;19.88;9.02;;;23.40;88.20;;;;;;4962800;28;113295;-63
2022/01/25 13:01:20;;;;;;;16.38;7.82;;;23.70;86.90;;;;;;4979787;22;112914;-63
2022/01/25 13:03:48;;;;;;;15.50;8.05;;;24.00;85.00;;;;;;4943748;28;112435;-62
2022/01/25 13:06:16;;;;;;;14.13;8.82;;;24.30;83.50;;;;;;4943613;28;113766;-64
2022/01/25 13:09:11;;;;;;;14.38;7.72;;;24.50;82.00;;;;;;4944249;28;112981;-63
2022/01/25 13:17:15;;;;;;;16.60;9.32;;;25.60;77.50;;;;;;4943422;28;112561;-62
2022/01/25 13:19:51;;;;;;;15.55;9.15;;;25.80;75.70;;;;;;4943949;28;113813;-63
2022/01/25 13:22:33;;;;;;;15.35;8.27;;;25.80;74.90;;;;;;4943618;28;112855;-60
2022/01/25 13:27:46;;;;;;;15.60;9.00;;;26.20;73.50;;;;;;4944551;28;112808;-62
2022/01/25 13:33:00;;;;;;;17.65;9.48;;;26.50;71.30;;;;;;4943652;28;112612;-65
2022/01/25 13:35:40;;;;;;;20.33;8.95;;;26.70;69.40;;;;;;4944641;28;112351;-61
2022/01/25 13:38:12;;;;;;;18.90;9.13;;;26.60;68.60;;;;;;4943950;28;112460;-62
2022/01/25 13:40:55;;;;;;;13.23;8.65;;;26.60;67.70;;;;;;4943866;28;113139;-65
2022/01/25 13:45:59;;;;;;;18.23;9.43;;;26.90;68.10;;;;;;4943954;28;112489;-62
2022/01/25 13:48:27;;;;;;;26.50;12.85;;;27.10;67.70;;;;;;4942988;28;112681;-67
2022/01/25 13:51:00;;;;;;;18.27;11.55;;;27.30;68.20;;;;;;4941962;28;113201;-65
2022/01/25 13:53:27;;;;;;;19.60;10.23;;;27.80;65.80;;;;;;4942680;28;113603;-64
2022/01/25 13:55:57;;;;;;;19.45;10.32;;;28.10;65.50;;;;;;4943303;28;112474;-62
2022/01/25 13:58:30;;;;;;;21.60;12.63;;;28.00;65.10;;;;;;4943404;28;112512;-62
2022/01/25 14:00:58;;;;;;;21.67;12.70;;;28.10;65.20;;;;;;4940731;28;115507;-61
2022/01/25 14:03:41;;;;;;;28.83;12.13;;;28.10;65.60;;;;;;4941813;28;113477;-61
2022/01/25 14:06:35;;;;;;;20.10;12.93;;;28.20;65.50;;;;;;4941558;28;112508;-62
2022/01/25 14:09:07;;;;;;;25.90;15.13;;;28.60;64.70;;;;;;4943421;28;113630;-61
2022/01/25 14:25:39;;;;;;;17.30;10.93;;;25.60;64.70;;;;;;4942561;28;112451;-64
2022/01/25 14:28:11;;;;;;;19.05;10.40;;;25.20;65.50;;;;;;4942968;28;112872;-63
2022/01/25 14:30:42;;;;;;;22.15;10.13;;;24.40;65.90;;;;;;4942888;28;112382;-63
2022/01/25 14:33:14;;;;;;;19.67;9.05;;;23.40;67.50;;;;;;4941210;28;114268;-61
2022/01/25 14:36:05;;;;;;;13.68;7.40;;;22.80;68.80;;;;;;4943185;28;113493;-65
2022/01/25 14:38:34;;;;;;;28.98;10.48;;;23.20;69.70;;;;;;4943350;28;112350;-63
2022/01/25 14:41:10;;;;;;;18.52;8.80;;;23.00;69.40;;;;;;4942846;28;112536;-63
2022/01/25 14:43:50;;;;;;;18.63;8.32;;;22.50;69.50;;;;;;4941240;28;116059;-63
2022/01/25 14:46:22;;;;;;;;;;;22.80;70.70;;;;;;4943473;28;112646;-62
2022/01/25 14:49:14;;;;;;;19.35;8.50;;;23.40;70.40;;;;;;4944886;28;112823;-64
2022/01/25 14:51:52;;;;;;;15.80;7.28;;;24.70;69.50;;;;;;4944041;28;112542;-63
2022/01/25 14:54:30;;;;;;;15.27;6.35;;;26.00;68.10;;;;;;4941406;28;114230;-63